METAR Data
IDs: Format: Raw Decoded Include TAF

Data at: 0838 UTC 23 Sep 2018

KPWK 230752Z AUTO 00000KT 10SM CLR 11/07 A3019 RMK AO2 SLP224 T01060072
KPWK 230652Z AUTO 00000KT 10SM CLR 10/07 A3019 RMK AO2 SLP225 T01000072
KPWK 230552Z AUTO 00000KT 10SM CLR 11/08 A3019 RMK AO2 SLP225 T01060078 10150 20106 401780106 57009
KPWK 230452Z AUTO 00000KT 10SM CLR 12/08 A3020 RMK AO2 SLP228 T01170078
KPWK 230352Z AUTO 00000KT 10SM CLR 11/08 A3021 RMK AO2 SLP229 T01110078
KPWK 230252Z 00000KT 10SM CLR 12/08 A3022 RMK AO2 SLP233 T01220078 50000
KPWK 230152Z 00000KT 10SM CLR 13/08 A3022 RMK AO2 SLP234 T01280083
KPWK 230052Z 00000KT 10SM CLR 14/08 A3022 RMK AO2 SLP232 T01390083
KPWK 222352Z 07003KT 10SM CLR 15/07 A3022 RMK AO2 SLP234 T01500072 10178 20150 58012
KPWK 222252Z VRB05KT 10SM CLR 16/06 A3023 RMK AO2 SLP239 T01610061
KPWK 222152Z 07007KT 10SM CLR 17/06 A3025 RMK AO2 SLP243 T01670056
KPWK 222052Z 07007KT 10SM CLR 17/05 A3026 RMK AO2 SLP245 T01670050 56021
KPWK 221952Z 05009KT 10SM CLR 18/04 A3027 RMK AO2 SLP250 T01780044
KPWK 221852Z 07007KT 10SM CLR 17/04 A3030 RMK AO2 SLP259 T01720044
KPWK 221752Z 09009G16KT 10SM CLR 17/03 A3032 RMK AO2 SLP267 T01720028 10172 20106 58010
KPWK 221652Z 06009G15KT 10SM CLR 17/04 A3034 RMK AO2 SLP274 T01720044
KPWK 221552Z 06011G17KT 10SM FEW039 17/05 A3036 RMK AO2 SLP280 T01670050
KPWK 221452Z 09008G17KT 10SM SCT036 16/06 A3035 RMK AO2 SLP277 T01610056 52007
KPWK 221352Z 07012G20KT 10SM CLR 16/04 A3034 RMK AO2 SLP274 T01560039
KPWK 221252Z 07005KT 10SM SCT038 14/07 A3034 RMK AO2 SLP273 T01440067
KPWK 221152Z 32005KT 10SM FEW039 11/06 A3033 RMK AO2 SLP271 T01060061 10133 20106 53007
KPWK 221052Z AUTO 35007KT 10SM OVC034 11/06 A3032 RMK AO2 SLP266 T01110061
KPWK 220952Z AUTO 35009KT 10SM SCT042 11/06 A3031 RMK AO2 SLP264 T01110056
KPWK 220852Z AUTO 35009KT 10SM OVC040 12/06 A3031 RMK AO2 SLP262 T01170056 51004
KPWK 220752Z AUTO 34007KT 10SM BKN041 12/05 A3030 RMK AO2 SLP260 T01170050
KPWK 220652Z AUTO 35009KT 10SM OVC039 13/06 A3030 RMK AO2 SLP260 T01280056
KPWK 220552Z AUTO 36011KT 10SM OVC039 13/06 A3029 RMK AO2 SLP257 T01330056 10172 20133 402890133 51009
KPWK 220452Z AUTO 34010KT 10SM OVC040 14/05 A3029 RMK AO2 SLP256 T01390050
KPWK 220352Z AUTO 35010KT 10SM CLR 14/05 A3028 RMK AO2 SLP250 T01390050
KPWK 220252Z 36009KT 10SM CLR 14/05 A3026 RMK AO2 SLP246 T01440050 53040
KPWK 220152Z 34011G17KT 10SM CLR 16/07 A3023 RMK AO2 SLP234 T01560072
KPWK 220052Z 33009G17KT 10SM CLR 17/07 A3018 RMK AO2 SLP216 T01670072
KPWK 212352Z 32013G21KT 10SM CLR 17/07 A3015 RMK AO2 SLP205 T01720072 10233 20172 53039
KPWK 212252Z 32014G20KT 10SM FEW050 19/09 A3010 RMK AO2 SLP188 T01940089
KPWK 212152Z 32014G21KT 10SM SCT048 21/09 A3006 RMK AO2 SLP174 T02110094
KPWK 212052Z 29014G23KT 10SM SCT049 22/09 A3003 RMK AO2 SLP163 T02220094 53027